createdAt,value
2022-10-31T00:04:08.728Z,68.21
2022-10-31T00:09:10.526Z,69.76
2022-10-31T00:14:11.942Z,70.44
2022-10-31T00:19:13.421Z,71.00
2022-10-31T00:24:14.944Z,71.16
2022-10-31T00:29:16.344Z,70.54
2022-10-31T00:34:17.732Z,70.38
2022-10-31T00:39:19.118Z,70.68
2022-10-31T00:44:20.897Z,70.62
2022-10-31T00:49:22.423Z,70.46
2022-10-31T00:54:24.510Z,70.70
2022-10-31T00:59:25.989Z,70.85
2022-10-31T01:04:27.425Z,70.72
2022-10-31T01:09:30.284Z,70.41
2022-10-31T01:14:31.696Z,69.67
2022-10-31T01:19:33.232Z,70.40
2022-10-31T01:24:34.865Z,70.34
2022-10-31T01:29:37.187Z,70.22
2022-10-31T01:34:38.585Z,70.34
2022-10-31T01:39:39.997Z,69.77
2022-10-31T01:44:41.358Z,71.09
2022-10-31T01:50:03.446Z,71.62
2022-10-31T01:55:17.184Z,70.53
2022-10-31T02:00:20.945Z,70.76
2022-10-31T02:05:26.612Z,70.55
2022-10-31T02:10:31.255Z,70.32
2022-10-31T02:15:33.855Z,70.60
2022-10-31T02:20:50.229Z,70.67
2022-10-31T02:26:18.781Z,68.60
2022-10-31T02:31:33.776Z,69.20
2022-10-31T02:36:47.016Z,69.88
2022-10-31T02:42:04.927Z,70.10
2022-10-31T02:47:12.220Z,70.19
2022-10-31T02:52:34.840Z,70.37
2022-10-31T02:57:41.083Z,70.67
2022-10-31T03:02:48.565Z,71.09
2022-10-31T03:08:07.436Z,70.48
2022-10-31T03:13:13.695Z,70.36
2022-10-31T03:18:29.066Z,70.81
2022-10-31T03:23:32.945Z,70.45
2022-10-31T03:28:45.196Z,71.16
2022-10-31T03:33:50.141Z,70.72
2022-10-31T03:38:52.285Z,69.83
2022-10-31T03:43:58.921Z,70.63
2022-10-31T03:49:01.427Z,71.21
2022-10-31T03:54:14.665Z,70.58
2022-10-31T03:59:22.306Z,70.79
2022-10-31T04:04:27.253Z,70.91
2022-10-31T04:09:33.217Z,70.11
2022-10-31T04:14:38.196Z,70.07
2022-10-31T04:19:39.760Z,70.40
2022-10-31T04:24:41.931Z,70.90
2022-10-31T04:29:48.364Z,70.42
2022-10-31T04:34:52.418Z,70.82
2022-10-31T04:39:53.867Z,70.62
2022-10-31T04:45:16.872Z,71.33
2022-10-31T04:50:23.370Z,71.50
2022-10-31T04:55:25.808Z,71.69
2022-10-31T05:00:52.908Z,71.33
2022-10-31T05:05:54.407Z,69.68
2022-10-31T05:10:57.360Z,70.54
2022-10-31T05:16:02.037Z,70.82
2022-10-31T05:21:21.764Z,70.60
2022-10-31T05:26:26.920Z,70.88
2022-10-31T05:31:30.158Z,71.72
2022-10-31T05:36:31.680Z,72.53
2022-10-31T05:41:35.378Z,71.47
2022-10-31T05:46:44.439Z,71.26
2022-10-31T05:52:04.279Z,70.73
2022-10-31T05:57:15.304Z,71.23
2022-10-31T06:02:17.312Z,71.25
2022-10-31T06:07:37.021Z,70.32
2022-10-31T06:12:39.106Z,70.07
2022-10-31T06:18:03.833Z,70.07
2022-10-31T06:23:09.326Z,70.26
2022-10-31T06:28:10.828Z,70.40
2022-10-31T06:33:35.122Z,70.39
2022-10-31T06:38:37.091Z,70.93
2022-10-31T06:43:42.429Z,71.26
2022-10-31T06:49:07.265Z,71.50
2022-10-31T06:54:17.600Z,71.96
2022-10-31T06:59:19.680Z,72.67
2022-10-31T07:04:41.062Z,72.34
2022-10-31T07:09:43.425Z,72.58
2022-10-31T07:14:46.612Z,72.47
2022-10-31T07:19:48.532Z,73.16
2022-10-31T07:24:52.189Z,72.69
2022-10-31T07:29:53.588Z,72.22
2022-10-31T07:34:55.036Z,71.26
2022-10-31T07:39:58.489Z,71.12
2022-10-31T07:45:00.080Z,71.50
2022-10-31T07:50:23.462Z,71.06
2022-10-31T07:55:57.184Z,70.07
2022-10-31T08:01:04.239Z,69.51
2022-10-31T08:06:14.758Z,67.45
2022-10-31T08:11:34.651Z,67.50
2022-10-31T08:16:37.188Z,66.94
2022-10-31T08:21:41.220Z,67.48
2022-10-31T08:26:44.402Z,66.79
2022-10-31T08:31:46.954Z,67.20
2022-10-31T08:37:08.299Z,67.70
2022-10-31T08:42:16.453Z,66.39
2022-10-31T08:47:18.201Z,64.89
2022-10-31T08:52:19.718Z,63.84
2022-10-31T08:57:23.001Z,64.03
2022-10-31T09:02:24.640Z,66.20
2022-10-31T09:07:31.104Z,65.19
2022-10-31T09:12:33.804Z,64.95
2022-10-31T09:17:48.057Z,64.27
2022-10-31T09:22:58.659Z,65.18
2022-10-31T09:28:01.945Z,65.09
2022-10-31T09:33:06.683Z,65.60
2022-10-31T09:38:14.815Z,64.05
2022-10-31T09:43:34.619Z,63.80
2022-10-31T09:49:06.733Z,63.41
2022-10-31T09:54:36.618Z,60.86
2022-10-31T09:59:41.498Z,60.59
2022-10-31T10:04:52.422Z,61.09
2022-10-31T10:09:55.695Z,61.67
2022-10-31T10:15:37.042Z,59.14
2022-10-31T10:20:56.949Z,56.17
2022-10-31T10:26:18.075Z,55.19
2022-10-31T10:31:28.313Z,52.69
2022-10-31T10:36:47.189Z,50.64
2022-10-31T10:41:51.186Z,47.52
2022-10-31T10:47:00.101Z,46.98
2022-10-31T10:52:50.162Z,50.25
2022-10-31T10:57:58.411Z,52.25
2022-10-31T11:03:00.503Z,55.66
2022-10-31T11:08:02.825Z,56.17
2022-10-31T11:13:24.536Z,57.98
2022-10-31T11:18:28.775Z,57.03
2022-10-31T11:23:30.946Z,58.99
2022-10-31T11:28:34.336Z,57.37
2022-10-31T11:33:47.048Z,58.03
2022-10-31T11:38:49.115Z,57.70
2022-10-31T11:44:00.557Z,58.67
2022-10-31T11:49:03.872Z,58.07
2022-10-31T11:54:06.412Z,57.39
2022-10-31T11:59:19.618Z,57.40
2022-10-31T12:04:39.875Z,58.38
2022-10-31T12:09:42.243Z,57.36
2022-10-31T12:15:01.933Z,56.93
2022-10-31T12:20:31.296Z,57.87
2022-10-31T12:25:42.439Z,48.95
2022-10-31T12:31:00.036Z,41.21
2022-10-31T12:36:27.690Z,34.94
2022-10-31T12:41:46.859Z,30.95
2022-10-31T12:47:25.291Z,27.14
2022-10-31T12:52:49.560Z,27.08
2022-10-31T12:58:04.267Z,27.85
2022-10-31T13:03:27.359Z,27.47
2022-10-31T13:08:48.827Z,26.37
2022-10-31T13:14:06.698Z,28.23
2022-10-31T13:19:26.446Z,28.55
2022-10-31T13:24:36.036Z,29.83
2022-10-31T13:29:47.765Z,31.80
2022-10-31T13:34:55.000Z,34.44
2022-10-31T13:40:22.820Z,37.19
2022-10-31T13:45:25.999Z,37.76
2022-10-31T13:50:30.036Z,38.06
2022-10-31T13:55:44.358Z,39.81
2022-10-31T14:00:45.991Z,41.46
2022-10-31T14:05:55.198Z,44.28
2022-10-31T14:10:57.162Z,45.65
2022-10-31T14:16:01.144Z,46.50
2022-10-31T14:21:13.704Z,48.81
2022-10-31T14:26:23.654Z,50.74
2022-10-31T14:31:28.095Z,50.61
2022-10-31T14:36:35.369Z,52.01
2022-10-31T14:41:55.261Z,52.63
2022-10-31T14:47:17.009Z,52.80
2022-10-31T14:52:19.887Z,53.44
2022-10-31T14:57:35.489Z,54.78
2022-10-31T15:02:50.819Z,55.99
2022-10-31T15:07:53.868Z,56.74
2022-10-31T15:12:55.270Z,57.53
2022-10-31T15:17:59.950Z,58.74
2022-10-31T15:23:01.668Z,59.99
2022-10-31T15:28:14.683Z,60.15
2022-10-31T15:33:36.764Z,60.69
2022-10-31T15:38:39.621Z,61.70
2022-10-31T15:43:41.094Z,61.93
2022-10-31T15:48:47.705Z,62.19
2022-10-31T15:53:52.445Z,62.29
2022-10-31T15:58:55.454Z,63.63
2022-10-31T16:04:13.193Z,64.83
2022-10-31T16:09:25.035Z,65.10
2022-10-31T16:14:29.777Z,65.45
2022-10-31T16:19:34.687Z,65.99
2022-10-31T16:24:49.224Z,66.76
2022-10-31T16:29:50.682Z,67.48
2022-10-31T16:35:10.799Z,66.89
2022-10-31T16:40:13.666Z,66.61
2022-10-31T16:45:24.304Z,67.94
2022-10-31T16:50:27.877Z,68.21
2022-10-31T16:55:29.423Z,69.31
2022-10-31T17:00:30.880Z,69.57
2022-10-31T17:05:32.258Z,70.25
2022-10-31T17:10:34.255Z,69.84
2022-10-31T17:15:49.804Z,69.68
2022-10-31T17:20:55.557Z,69.56
2022-10-31T17:25:57.301Z,70.52
2022-10-31T17:30:58.685Z,70.87
2022-10-31T17:36:02.897Z,71.56
2022-10-31T17:41:11.003Z,71.74
2022-10-31T17:46:13.035Z,69.64
2022-10-31T17:51:14.469Z,70.11
2022-10-31T17:56:15.926Z,70.73
2022-10-31T18:01:18.790Z,71.72
2022-10-31T18:06:20.331Z,72.13
2022-10-31T18:11:21.921Z,70.97
2022-10-31T18:16:23.991Z,71.32
2022-10-31T18:21:25.706Z,71.43
2022-10-31T18:26:27.749Z,70.17
2022-10-31T18:31:29.441Z,71.47
2022-10-31T18:36:30.979Z,72.95
2022-10-31T18:41:32.895Z,72.71
2022-10-31T18:46:35.357Z,73.09
2022-10-31T18:51:36.796Z,72.50
2022-10-31T18:56:38.213Z,73.32
2022-10-31T19:01:40.130Z,72.68
2022-10-31T19:06:41.691Z,73.74
2022-10-31T19:11:43.108Z,73.38
2022-10-31T19:16:44.544Z,73.73
2022-10-31T19:21:46.350Z,73.81
2022-10-31T19:26:48.352Z,74.30
2022-10-31T19:31:49.765Z,73.42
2022-10-31T19:36:51.169Z,73.34
2022-10-31T19:41:52.574Z,75.24
2022-10-31T19:46:54.404Z,72.95
2022-10-31T19:51:55.872Z,76.18
2022-10-31T19:56:57.283Z,73.50
2022-10-31T20:01:58.729Z,73.81
2022-10-31T20:07:00.166Z,74.14
2022-10-31T20:12:02.808Z,73.87
2022-10-31T20:17:04.524Z,74.66
2022-10-31T20:22:05.941Z,74.63
2022-10-31T20:27:07.449Z,73.91
2022-10-31T20:32:08.849Z,74.93
2022-10-31T20:37:10.272Z,76.07
2022-10-31T20:42:11.664Z,73.51
2022-10-31T20:47:13.100Z,73.31
2022-10-31T20:52:14.521Z,74.51
2022-10-31T20:57:15.949Z,75.09
2022-10-31T21:02:17.467Z,74.82
2022-10-31T21:07:18.929Z,75.05
2022-10-31T21:12:20.309Z,74.71
2022-10-31T21:17:22.919Z,74.36
2022-10-31T21:22:24.339Z,74.86
2022-10-31T21:27:25.880Z,75.42
2022-10-31T21:32:27.293Z,74.51
2022-10-31T21:37:28.676Z,74.77
2022-10-31T21:42:30.058Z,74.82
2022-10-31T21:47:31.457Z,75.31
2022-10-31T21:52:32.869Z,74.38
2022-10-31T21:57:34.289Z,75.26
2022-10-31T22:02:36.503Z,74.55
2022-10-31T22:07:37.880Z,73.01
2022-10-31T22:12:39.249Z,73.05
2022-10-31T22:17:40.707Z,72.99
2022-10-31T22:22:42.113Z,72.41
2022-10-31T22:27:43.527Z,73.22
2022-10-31T22:32:44.923Z,73.55
2022-10-31T22:37:46.353Z,73.33
2022-10-31T22:42:47.751Z,73.80
2022-10-31T22:47:49.156Z,75.11
2022-10-31T22:52:50.572Z,73.64
2022-10-31T22:57:51.966Z,72.92
2022-10-31T23:02:53.324Z,73.41
2022-10-31T23:07:54.711Z,74.80
2022-10-31T23:12:56.109Z,73.96
2022-10-31T23:17:57.508Z,73.49
2022-10-31T23:22:59.330Z,74.47
2022-10-31T23:28:00.976Z,74.84
2022-10-31T23:33:02.667Z,74.62
2022-10-31T23:38:04.511Z,72.61
2022-10-31T23:43:06.981Z,73.42
2022-10-31T23:48:08.412Z,74.73
2022-10-31T23:53:09.804Z,73.53
2022-10-31T23:58:11.200Z,73.00
